createdAt,value
2023-01-11T00:00:00.524Z,83.01
2023-01-11T00:01:02.107Z,82.80
2023-01-11T00:02:03.755Z,82.79
2023-01-11T00:03:05.521Z,82.62
2023-01-11T00:04:07.061Z,82.61
2023-01-11T00:05:09.659Z,82.96
2023-01-11T00:06:11.266Z,82.66
2023-01-11T00:07:12.849Z,82.65
2023-01-11T00:08:14.436Z,82.66
2023-01-11T00:09:16.162Z,82.75
2023-01-11T00:10:18.061Z,82.81
2023-01-11T00:11:19.662Z,82.61
2023-01-11T00:12:21.232Z,82.65
2023-01-11T00:13:22.854Z,82.69
2023-01-11T00:14:24.451Z,82.84
2023-01-11T00:15:26.037Z,82.74
2023-01-11T00:16:27.689Z,82.73
2023-01-11T00:17:29.558Z,82.54
2023-01-11T00:18:31.108Z,82.72
2023-01-11T00:19:32.677Z,82.44
2023-01-11T00:20:34.882Z,82.53
2023-01-11T00:21:36.496Z,82.54
2023-01-11T00:22:38.133Z,82.55
2023-01-11T00:23:39.763Z,82.54
2023-01-11T00:24:41.371Z,82.60
2023-01-11T00:25:42.950Z,82.52
2023-01-11T00:26:44.509Z,82.44
2023-01-11T00:27:47.420Z,82.59
2023-01-11T00:28:49.465Z,82.80
2023-01-11T00:29:51.137Z,82.71
2023-01-11T00:30:52.778Z,82.52
2023-01-11T00:31:54.391Z,82.70
2023-01-11T00:32:59.832Z,82.47
2023-01-11T00:34:01.375Z,82.51
2023-01-11T00:35:03.448Z,82.75
2023-01-11T00:36:05.129Z,82.82
2023-01-11T00:37:06.748Z,82.79
2023-01-11T00:38:08.364Z,82.72
2023-01-11T00:39:09.945Z,82.87
2023-01-11T00:40:11.924Z,83.00
2023-01-11T00:41:41.239Z,83.11
2023-01-11T00:43:01.324Z,83.00
2023-01-11T00:44:22.358Z,83.08
2023-01-11T00:45:42.661Z,83.20
2023-01-11T00:47:02.359Z,83.38
2023-01-11T00:48:06.035Z,83.38
2023-01-11T00:49:07.610Z,83.52
2023-01-11T00:50:10.457Z,83.19
2023-01-11T00:51:12.013Z,83.34
2023-01-11T00:52:13.556Z,83.38
2023-01-11T00:53:15.134Z,83.58
2023-01-11T00:54:16.736Z,83.62
2023-01-11T00:55:18.308Z,83.45
2023-01-11T00:56:19.847Z,83.46
2023-01-11T00:57:21.490Z,83.39
2023-01-11T00:58:23.103Z,83.37
2023-01-11T00:59:24.666Z,83.30
2023-01-11T01:00:26.402Z,83.23
2023-01-11T01:01:28.168Z,83.36
2023-01-11T01:02:29.825Z,83.29
2023-01-11T01:03:31.403Z,83.47
2023-01-11T01:04:33.091Z,83.29
2023-01-11T01:05:37.076Z,83.20
2023-01-11T01:06:38.747Z,83.15
2023-01-11T01:07:40.334Z,83.22
2023-01-11T01:08:41.888Z,83.00
2023-01-11T01:09:43.473Z,83.07
2023-01-11T01:10:45.038Z,83.01
2023-01-11T01:11:46.773Z,83.03
2023-01-11T01:13:07.186Z,82.95
2023-01-11T01:14:26.763Z,83.29
2023-01-11T01:15:28.387Z,83.36
2023-01-11T01:16:30.024Z,83.45
2023-01-11T01:17:31.571Z,83.39
2023-01-11T01:18:33.168Z,83.29
2023-01-11T01:19:36.323Z,83.36
2023-01-11T01:20:37.877Z,83.37
2023-01-11T01:21:39.482Z,83.38
2023-01-11T01:22:41.319Z,83.45
2023-01-11T01:23:42.929Z,83.32
2023-01-11T01:24:44.540Z,83.27
2023-01-11T01:25:46.092Z,83.27
2023-01-11T01:26:47.703Z,83.30
2023-01-11T01:27:49.348Z,83.20
2023-01-11T01:28:50.957Z,83.05
2023-01-11T01:29:52.511Z,83.23
2023-01-11T01:30:54.133Z,83.22
2023-01-11T01:31:55.711Z,83.31
2023-01-11T01:32:57.259Z,83.61
2023-01-11T01:33:58.903Z,83.64
2023-01-11T01:35:00.592Z,83.56
2023-01-11T01:36:02.556Z,83.64
2023-01-11T01:37:07.667Z,84.09
2023-01-11T01:38:09.218Z,84.19
2023-01-11T01:39:10.860Z,83.98
2023-01-11T01:40:12.843Z,83.99
2023-01-11T01:41:14.431Z,83.87
2023-01-11T01:42:17.722Z,83.86
2023-01-11T01:43:19.337Z,83.87
2023-01-11T01:44:48.725Z,83.79
2023-01-11T01:45:52.848Z,83.98
2023-01-11T01:46:54.392Z,84.19
2023-01-11T01:48:02.235Z,84.22
2023-01-11T01:49:08.136Z,84.19
2023-01-11T01:50:12.964Z,84.12
2023-01-11T01:51:19.514Z,84.44
2023-01-11T01:52:21.164Z,84.35
2023-01-11T01:53:35.806Z,84.26
2023-01-11T01:54:39.419Z,84.44
2023-01-11T01:55:43.437Z,84.38
2023-01-11T01:56:59.479Z,84.21
2023-01-11T01:58:01.693Z,84.15
2023-01-11T01:59:07.751Z,83.90
2023-01-11T02:00:10.194Z,84.08
2023-01-11T02:01:32.657Z,84.25
2023-01-11T02:02:34.310Z,84.24
2023-01-11T02:03:35.918Z,84.22
2023-01-11T02:04:41.975Z,84.22
2023-01-11T02:05:43.554Z,84.01
2023-01-11T02:06:45.229Z,84.10
2023-01-11T02:07:46.955Z,84.40
2023-01-11T02:08:58.090Z,84.28
2023-01-11T02:10:10.696Z,84.30
2023-01-11T02:11:29.957Z,84.26
2023-01-11T02:13:01.308Z,84.18
2023-01-11T02:14:06.321Z,84.15
2023-01-11T02:15:09.154Z,84.45
2023-01-11T02:16:10.810Z,84.43
2023-01-11T02:17:12.995Z,84.42
2023-01-11T02:18:14.621Z,84.34
2023-01-11T02:19:48.103Z,84.41
2023-01-11T02:21:07.407Z,84.24
2023-01-11T02:22:49.709Z,84.07
2023-01-11T02:24:15.833Z,84.27
2023-01-11T02:25:48.495Z,84.18
2023-01-11T02:27:14.926Z,84.39
2023-01-11T02:29:05.573Z,84.49
2023-01-11T02:30:31.832Z,84.40
2023-01-11T02:31:38.765Z,84.42
2023-01-11T02:33:09.099Z,84.46
2023-01-11T02:34:31.200Z,84.63
2023-01-11T02:35:41.445Z,84.34
2023-01-11T02:37:03.063Z,84.52
2023-01-11T02:38:04.556Z,84.49
2023-01-11T02:39:19.741Z,84.45
2023-01-11T02:40:34.872Z,84.41
2023-01-11T02:42:14.612Z,84.32
2023-01-11T02:43:37.182Z,83.95
2023-01-11T02:45:00.579Z,84.14
2023-01-11T02:46:29.995Z,84.16
2023-01-11T02:47:46.208Z,84.26
2023-01-11T02:49:02.108Z,84.36
2023-01-11T02:50:08.081Z,84.33
2023-01-11T02:51:22.630Z,84.31
2023-01-11T02:52:37.179Z,84.37
2023-01-11T02:53:54.088Z,84.45
2023-01-11T02:54:56.928Z,84.40
2023-01-11T02:55:59.771Z,84.20
2023-01-11T02:57:01.392Z,84.20
2023-01-11T02:58:03.048Z,84.38
2023-01-11T02:59:04.597Z,84.52
2023-01-11T03:00:06.944Z,84.55
2023-01-11T03:01:08.521Z,84.49
2023-01-11T03:02:10.093Z,84.42
2023-01-11T03:03:19.112Z,84.54
2023-01-11T03:04:35.638Z,84.29
2023-01-11T03:05:38.663Z,84.36
2023-01-11T03:06:40.235Z,84.22
2023-01-11T03:07:53.817Z,84.38
2023-01-11T03:09:19.694Z,84.38
2023-01-11T03:10:39.802Z,84.54
2023-01-11T03:12:21.715Z,84.37
2023-01-11T03:14:02.128Z,84.27
2023-01-11T03:15:09.419Z,84.06
2023-01-11T03:16:17.014Z,84.14
2023-01-11T03:17:25.995Z,84.03
2023-01-11T03:18:36.183Z,84.03
2023-01-11T03:19:55.374Z,83.99
2023-01-11T03:20:59.977Z,84.07
2023-01-11T03:22:08.473Z,84.06
2023-01-11T03:23:10.589Z,83.97
2023-01-11T03:24:21.184Z,84.02
2023-01-11T03:25:40.014Z,83.94
2023-01-11T03:26:48.127Z,83.96
2023-01-11T03:27:53.809Z,84.27
2023-01-11T03:29:18.346Z,84.55
2023-01-11T03:30:19.915Z,84.45
2023-01-11T03:31:39.167Z,84.39
2023-01-11T03:33:02.552Z,84.49
2023-01-11T03:34:18.700Z,84.44
2023-01-11T03:35:27.981Z,84.50
2023-01-11T03:36:35.446Z,84.33
2023-01-11T03:37:54.845Z,84.32
2023-01-11T03:39:00.473Z,84.16
2023-01-11T03:40:13.231Z,84.06
2023-01-11T03:41:20.721Z,84.00
2023-01-11T03:42:22.442Z,84.00
2023-01-11T03:43:24.266Z,84.17
2023-01-11T03:44:27.082Z,84.24
2023-01-11T03:45:28.700Z,84.13
2023-01-11T03:46:44.288Z,83.99
2023-01-11T03:47:45.879Z,83.83
2023-01-11T03:49:11.015Z,83.67
2023-01-11T03:50:12.649Z,83.67
2023-01-11T03:51:16.034Z,83.46
2023-01-11T03:52:18.397Z,83.51
2023-01-11T03:53:20.705Z,83.58
2023-01-11T03:54:24.355Z,83.54
2023-01-11T03:55:26.692Z,83.48
2023-01-11T03:56:37.048Z,83.66
2023-01-11T03:57:42.515Z,84.08
2023-01-11T03:58:44.123Z,84.06
2023-01-11T03:59:45.745Z,83.85
2023-01-11T04:00:47.571Z,83.71
2023-01-11T04:01:49.196Z,83.63
2023-01-11T04:02:53.862Z,83.55
2023-01-11T04:03:55.489Z,83.47
2023-01-11T04:04:57.169Z,83.39
2023-01-11T04:06:00.047Z,83.33
2023-01-11T04:07:01.724Z,83.57
2023-01-11T04:08:03.368Z,83.63
2023-01-11T04:09:05.090Z,83.64
2023-01-11T04:10:07.017Z,83.54
2023-01-11T04:11:08.616Z,83.59
2023-01-11T04:12:10.366Z,83.68
2023-01-11T04:13:12.027Z,83.72
2023-01-11T04:14:13.645Z,83.70
2023-01-11T04:15:16.030Z,83.67
2023-01-11T04:16:17.721Z,83.67
2023-01-11T04:17:19.436Z,83.49
2023-01-11T04:18:21.084Z,83.68
2023-01-11T04:19:22.743Z,83.56
2023-01-11T04:20:24.298Z,83.85
2023-01-11T04:21:25.901Z,83.98
2023-01-11T04:22:27.477Z,84.28
2023-01-11T04:23:29.070Z,84.19
2023-01-11T04:24:30.639Z,84.41
2023-01-11T04:25:32.389Z,84.33
2023-01-11T04:26:34.082Z,84.37
2023-01-11T04:27:35.819Z,84.54
2023-01-11T04:28:37.422Z,84.68
2023-01-11T04:29:38.993Z,84.71
2023-01-11T04:30:40.531Z,84.73
2023-01-11T04:31:42.136Z,84.58
2023-01-11T04:32:43.841Z,84.70
2023-01-11T04:33:45.454Z,85.00
2023-01-11T04:34:47.020Z,84.92
2023-01-11T04:35:49.959Z,85.08
2023-01-11T04:36:51.521Z,85.29
2023-01-11T04:37:57.063Z,85.29
2023-01-11T04:38:58.699Z,85.51
2023-01-11T04:40:00.349Z,85.39
2023-01-11T04:41:23.345Z,85.26
2023-01-11T04:42:25.978Z,85.42
2023-01-11T04:43:27.551Z,85.61
2023-01-11T04:44:29.104Z,85.65
2023-01-11T04:45:30.843Z,85.68
2023-01-11T04:46:33.172Z,85.90
2023-01-11T04:47:34.748Z,85.86
2023-01-11T04:48:39.270Z,86.05
2023-01-11T04:49:40.957Z,86.12
2023-01-11T04:50:42.891Z,86.20
2023-01-11T04:51:44.535Z,86.09
2023-01-11T04:52:46.110Z,86.18
2023-01-11T04:53:49.178Z,86.28
2023-01-11T04:54:52.491Z,86.12
2023-01-11T04:55:54.049Z,85.93
2023-01-11T04:56:55.661Z,86.05
2023-01-11T04:57:57.209Z,86.03
2023-01-11T04:58:58.782Z,86.07
2023-01-11T05:00:00.329Z,85.96
2023-01-11T05:01:08.525Z,85.77
2023-01-11T05:02:10.210Z,85.65
2023-01-11T05:03:11.760Z,85.64
2023-01-11T05:04:13.686Z,85.65
2023-01-11T05:05:15.352Z,85.60
2023-01-11T05:06:17.135Z,85.34
2023-01-11T05:07:18.742Z,85.58
2023-01-11T05:08:20.342Z,85.50
2023-01-11T05:09:22.009Z,85.89
2023-01-11T05:10:23.606Z,85.73
2023-01-11T05:11:25.197Z,85.74
2023-01-11T05:12:26.790Z,85.95
2023-01-11T05:13:43.666Z,85.89
2023-01-11T05:14:45.369Z,86.04
2023-01-11T05:15:47.166Z,86.09
2023-01-11T05:16:48.900Z,85.91
2023-01-11T05:17:50.590Z,85.97
2023-01-11T05:18:56.595Z,86.07
2023-01-11T05:19:58.230Z,86.03
2023-01-11T05:20:59.828Z,86.41
2023-01-11T05:22:01.476Z,86.44
2023-01-11T05:23:03.102Z,86.33
2023-01-11T05:24:05.794Z,86.53
2023-01-11T05:25:07.811Z,86.39
2023-01-11T05:26:11.261Z,86.54
2023-01-11T05:27:12.943Z,86.66
2023-01-11T05:28:14.569Z,86.67
2023-01-11T05:29:16.485Z,86.82
2023-01-11T05:30:18.182Z,86.54
2023-01-11T05:31:19.957Z,86.38
2023-01-11T05:32:21.616Z,86.27
2023-01-11T05:33:23.235Z,86.24
2023-01-11T05:34:24.826Z,86.44
2023-01-11T05:35:26.430Z,86.34
2023-01-11T05:36:28.445Z,86.28
2023-01-11T05:37:30.094Z,86.21
2023-01-11T05:38:31.847Z,86.15
2023-01-11T05:39:33.501Z,86.05
2023-01-11T05:40:35.108Z,85.98
2023-01-11T05:41:36.702Z,86.39
2023-01-11T05:42:38.362Z,86.26
2023-01-11T05:43:58.570Z,86.10
2023-01-11T05:45:18.521Z,86.56
2023-01-11T05:46:20.503Z,86.67
2023-01-11T05:47:22.121Z,86.68
2023-01-11T05:48:24.148Z,86.57
2023-01-11T05:49:25.830Z,86.50
2023-01-11T05:50:27.554Z,87.01
2023-01-11T05:51:35.839Z,86.97
2023-01-11T05:52:37.493Z,86.88
2023-01-11T05:53:39.097Z,87.01
2023-01-11T05:54:40.704Z,87.27
2023-01-11T05:55:55.217Z,87.27
2023-01-11T05:56:57.886Z,87.78
2023-01-11T05:57:59.494Z,87.70
2023-01-11T05:59:01.169Z,87.61
2023-01-11T06:00:03.943Z,87.58
2023-01-11T06:01:05.916Z,87.58
2023-01-11T06:02:07.657Z,87.35
2023-01-11T06:03:09.449Z,87.38
2023-01-11T06:04:11.158Z,87.47
2023-01-11T06:05:12.767Z,87.41
2023-01-11T06:06:14.761Z,87.64
2023-01-11T06:07:16.383Z,87.84
2023-01-11T06:08:18.003Z,88.13
2023-01-11T06:09:19.608Z,88.22
2023-01-11T06:10:21.301Z,88.08
2023-01-11T06:11:22.940Z,88.20
2023-01-11T06:12:24.534Z,88.30
2023-01-11T06:13:29.040Z,88.07
2023-01-11T06:14:30.649Z,87.87
2023-01-11T06:15:32.311Z,88.06
2023-01-11T06:16:33.971Z,87.89
2023-01-11T06:17:35.614Z,87.70
2023-01-11T06:18:47.622Z,87.80
2023-01-11T06:19:49.310Z,87.84
2023-01-11T06:20:51.545Z,87.62
2023-01-11T06:21:53.219Z,87.42
2023-01-11T06:22:54.881Z,87.32
2023-01-11T06:23:56.525Z,87.11
2023-01-11T06:24:58.121Z,87.62
2023-01-11T06:26:07.347Z,87.48
2023-01-11T06:27:09.173Z,87.32
2023-01-11T06:28:10.957Z,87.26
2023-01-11T06:29:12.741Z,87.10
2023-01-11T06:30:14.463Z,87.30
2023-01-11T06:31:17.576Z,87.09
2023-01-11T06:32:19.716Z,86.96
2023-01-11T06:33:21.669Z,86.78
2023-01-11T06:34:23.283Z,86.52
2023-01-11T06:35:24.902Z,86.58
2023-01-11T06:36:28.329Z,86.63
2023-01-11T06:37:31.261Z,86.70
2023-01-11T06:38:33.006Z,86.72
2023-01-11T06:39:34.641Z,86.76
2023-01-11T06:40:36.578Z,86.73
2023-01-11T06:41:38.291Z,86.38
2023-01-11T06:42:39.895Z,86.69
2023-01-11T06:43:42.231Z,86.79
2023-01-11T06:44:44.046Z,86.89
2023-01-11T06:45:45.742Z,86.65
2023-01-11T06:46:47.425Z,86.85
2023-01-11T06:47:49.108Z,86.70
2023-01-11T06:48:50.865Z,86.51
2023-01-11T06:49:52.561Z,86.63
2023-01-11T06:50:55.911Z,87.16
2023-01-11T06:51:57.510Z,86.87
2023-01-11T06:53:01.841Z,86.58
2023-01-11T06:54:03.597Z,86.52
2023-01-11T06:55:05.813Z,86.38
2023-01-11T06:56:07.776Z,86.21
2023-01-11T06:57:09.428Z,86.16
2023-01-11T06:58:11.060Z,85.77
2023-01-11T06:59:13.059Z,85.80
2023-01-11T07:00:15.636Z,85.67
2023-01-11T07:01:17.350Z,85.62
2023-01-11T07:02:19.174Z,85.51
2023-01-11T07:03:20.826Z,85.39
2023-01-11T07:04:22.563Z,85.30
2023-01-11T07:05:24.237Z,85.08
2023-01-11T07:06:25.987Z,84.88
2023-01-11T07:07:27.593Z,84.91
2023-01-11T07:08:29.200Z,85.07
2023-01-11T07:09:30.797Z,84.78
2023-01-11T07:10:32.430Z,84.84
2023-01-11T07:11:35.275Z,85.16
2023-01-11T07:12:37.017Z,85.65
2023-01-11T07:13:38.689Z,85.63
2023-01-11T07:14:40.325Z,85.50
2023-01-11T07:15:42.819Z,85.49
2023-01-11T07:16:44.436Z,85.39
2023-01-11T07:17:47.750Z,85.20
2023-01-11T07:18:49.493Z,85.19
2023-01-11T07:19:51.120Z,85.30
2023-01-11T07:20:52.700Z,85.47
2023-01-11T07:21:54.297Z,85.40
2023-01-11T07:22:59.626Z,85.78
2023-01-11T07:24:01.955Z,85.77
2023-01-11T07:25:04.721Z,86.33
2023-01-11T07:26:06.388Z,86.12
2023-01-11T07:27:08.002Z,86.33
2023-01-11T07:28:10.060Z,86.11
2023-01-11T07:29:11.758Z,85.79
2023-01-11T07:30:13.670Z,85.98
2023-01-11T07:31:15.342Z,85.82
2023-01-11T07:32:16.952Z,85.94
2023-01-11T07:33:18.634Z,85.95
2023-01-11T07:34:20.256Z,85.86
2023-01-11T07:35:21.897Z,85.78
2023-01-11T07:36:23.520Z,85.79
2023-01-11T07:37:29.156Z,85.91
2023-01-11T07:38:31.130Z,85.91
2023-01-11T07:39:42.933Z,85.76
2023-01-11T07:40:45.211Z,86.05
2023-01-11T07:42:05.140Z,85.98
2023-01-11T07:43:15.019Z,86.14
2023-01-11T07:44:16.897Z,85.85
2023-01-11T07:45:18.696Z,85.90
2023-01-11T07:46:20.517Z,86.01
2023-01-11T07:47:22.201Z,86.01
2023-01-11T07:48:27.863Z,85.83
2023-01-11T07:49:29.685Z,86.25
2023-01-11T07:50:31.404Z,85.90
2023-01-11T07:51:33.166Z,86.03
2023-01-11T07:52:34.774Z,86.07
2023-01-11T07:53:38.324Z,85.85
2023-01-11T07:54:39.926Z,85.78
2023-01-11T07:55:41.673Z,86.04
2023-01-11T07:56:43.310Z,86.11
2023-01-11T07:57:44.900Z,86.30
2023-01-11T07:58:46.598Z,86.19
2023-01-11T07:59:48.259Z,86.10
2023-01-11T08:00:49.925Z,85.64
2023-01-11T08:01:51.524Z,86.03
2023-01-11T08:02:53.311Z,86.29
2023-01-11T08:03:55.056Z,86.32
2023-01-11T08:04:56.737Z,86.23
2023-01-11T08:05:58.396Z,85.99
2023-01-11T08:07:00.128Z,86.32
2023-01-11T08:08:02.074Z,86.24
2023-01-11T08:09:03.856Z,86.27
2023-01-11T08:10:06.079Z,85.80
2023-01-11T08:11:26.490Z,85.82
2023-01-11T08:12:46.636Z,85.70
2023-01-11T08:14:06.490Z,85.82
2023-01-11T08:15:10.449Z,85.58
2023-01-11T08:16:12.058Z,85.08
2023-01-11T08:17:16.843Z,85.20
2023-01-11T08:18:19.879Z,85.06
2023-01-11T08:19:21.738Z,85.57
2023-01-11T08:20:23.568Z,85.62
2023-01-11T08:21:25.158Z,85.58
2023-01-11T08:22:26.809Z,85.86
2023-01-11T08:23:30.171Z,85.30
2023-01-11T08:24:31.791Z,84.95
2023-01-11T08:25:33.386Z,84.68
2023-01-11T08:26:35.024Z,84.39
2023-01-11T08:27:36.728Z,84.42
2023-01-11T08:28:38.330Z,84.84
2023-01-11T08:29:40.737Z,85.26
2023-01-11T08:30:42.724Z,84.50
2023-01-11T08:31:45.481Z,84.39
2023-01-11T08:32:47.222Z,84.25
2023-01-11T08:33:49.204Z,84.40
2023-01-11T08:34:50.832Z,84.50
2023-01-11T08:35:52.431Z,84.44
2023-01-11T08:36:54.148Z,84.31
2023-01-11T08:37:55.882Z,84.44
2023-01-11T08:38:57.798Z,84.34
2023-01-11T08:39:59.502Z,84.32
2023-01-11T08:41:01.795Z,84.84
2023-01-11T08:42:03.570Z,83.95
2023-01-11T08:43:05.167Z,84.09
2023-01-11T08:44:06.879Z,83.69
2023-01-11T08:45:08.906Z,83.85
2023-01-11T08:46:10.625Z,84.05
2023-01-11T08:47:12.265Z,84.32
2023-01-11T08:48:13.973Z,84.34
2023-01-11T08:49:15.640Z,84.33
2023-01-11T08:50:18.751Z,84.27
2023-01-11T08:51:21.196Z,84.17
2023-01-11T08:52:22.980Z,83.78
2023-01-11T08:53:24.589Z,83.17
2023-01-11T08:54:26.222Z,83.57
2023-01-11T08:55:27.843Z,83.91
2023-01-11T08:56:29.546Z,84.09
2023-01-11T08:57:31.163Z,84.01
2023-01-11T08:58:32.768Z,84.03
2023-01-11T08:59:34.417Z,83.84
2023-01-11T09:00:36.013Z,84.24
2023-01-11T09:01:37.811Z,84.32
2023-01-11T09:02:39.601Z,82.88
2023-01-11T09:03:41.308Z,82.14
2023-01-11T09:04:42.917Z,82.28
2023-01-11T09:05:44.877Z,82.90
2023-01-11T09:06:46.536Z,82.89
2023-01-11T09:07:48.131Z,82.78
2023-01-11T09:08:49.783Z,82.84
2023-01-11T09:09:52.139Z,82.77
2023-01-11T09:10:53.957Z,82.95
2023-01-11T09:11:56.778Z,82.15
2023-01-11T09:12:58.887Z,82.18
2023-01-11T09:14:00.506Z,82.46
2023-01-11T09:15:02.272Z,82.02
2023-01-11T09:16:04.090Z,82.46
2023-01-11T09:17:05.752Z,82.39
2023-01-11T09:18:07.698Z,82.34
2023-01-11T09:19:09.307Z,81.89
2023-01-11T09:20:12.185Z,81.92
2023-01-11T09:21:14.109Z,81.77
2023-01-11T09:22:16.186Z,81.63
2023-01-11T09:23:17.796Z,81.73
2023-01-11T09:24:19.432Z,81.00
2023-01-11T09:25:21.103Z,80.45
2023-01-11T09:26:22.761Z,80.37
2023-01-11T09:27:24.595Z,80.43
2023-01-11T09:28:26.183Z,80.26
2023-01-11T09:29:27.823Z,80.49
2023-01-11T09:30:29.494Z,81.15
2023-01-11T09:31:31.362Z,80.94
2023-01-11T09:32:32.984Z,80.61
2023-01-11T09:33:38.555Z,80.61
2023-01-11T09:34:41.794Z,80.98
2023-01-11T09:35:46.243Z,80.97
2023-01-11T09:36:49.042Z,81.02
2023-01-11T09:37:51.704Z,81.01
2023-01-11T09:38:56.840Z,80.87
2023-01-11T09:39:59.738Z,81.25
2023-01-11T09:41:19.641Z,80.67
2023-01-11T09:42:47.147Z,80.11
2023-01-11T09:43:56.695Z,80.82
2023-01-11T09:45:17.498Z,81.21
2023-01-11T09:46:19.221Z,80.92
2023-01-11T09:47:32.339Z,80.75
2023-01-11T09:48:52.664Z,80.42
2023-01-11T09:49:57.278Z,79.81
2023-01-11T09:51:00.041Z,80.01
2023-01-11T09:52:22.347Z,79.92
2023-01-11T09:53:28.295Z,80.16
2023-01-11T09:54:30.033Z,80.52
2023-01-11T09:55:39.391Z,80.29
2023-01-11T09:56:46.432Z,80.40
2023-01-11T09:58:28.525Z,80.52
2023-01-11T09:59:44.216Z,79.79
2023-01-11T10:01:13.331Z,79.86
2023-01-11T10:02:28.685Z,79.67
2023-01-11T10:03:54.382Z,79.93
2023-01-11T10:05:29.777Z,79.34
2023-01-11T10:06:43.317Z,79.03
2023-01-11T10:18:30.651Z,78.46
2023-01-11T10:18:35.421Z,77.82
2023-01-11T10:19:37.721Z,78.39
2023-01-11T10:20:43.994Z,78.64
2023-01-11T10:21:54.732Z,79.14
2023-01-11T10:23:04.527Z,79.22
2023-01-11T10:24:15.394Z,78.99
2023-01-11T10:25:24.325Z,79.06
2023-01-11T10:26:32.509Z,78.53
2023-01-11T10:27:37.864Z,78.05
2023-01-11T10:29:17.445Z,78.00
2023-01-11T10:30:35.924Z,78.13
2023-01-11T10:31:37.595Z,78.43
2023-01-11T10:33:10.660Z,78.06
2023-01-11T10:34:34.782Z,77.64
2023-01-11T10:36:06.084Z,77.83
2023-01-11T10:37:34.370Z,77.90
2023-01-11T10:38:54.080Z,78.30
2023-01-11T10:40:33.307Z,78.73
2023-01-11T10:41:43.147Z,78.67
2023-01-11T10:42:52.371Z,77.54
2023-01-11T10:44:05.230Z,77.81
2023-01-11T10:45:12.600Z,78.16
2023-01-11T10:46:18.075Z,78.42
2023-01-11T10:47:22.070Z,77.46
2023-01-11T10:48:37.695Z,77.41
2023-01-11T10:50:06.476Z,77.14
2023-01-11T10:51:29.934Z,77.08
2023-01-11T10:53:05.572Z,77.67
2023-01-11T10:54:18.137Z,77.84
2023-01-11T10:55:25.061Z,77.22
2023-01-11T10:57:03.166Z,77.13
2023-01-11T10:58:26.095Z,77.39
2023-01-11T10:59:36.603Z,77.22
2023-01-11T11:00:44.319Z,77.12
2023-01-11T11:01:50.359Z,76.73
2023-01-11T11:03:27.759Z,76.71
2023-01-11T11:04:40.123Z,76.79
2023-01-11T11:05:52.851Z,76.67
2023-01-11T11:07:15.368Z,76.28
2023-01-11T11:08:26.749Z,76.89
2023-01-11T11:09:58.584Z,77.26
2023-01-11T11:11:01.592Z,76.07
2023-01-11T11:12:06.262Z,75.77
2023-01-11T11:13:36.888Z,75.69
2023-01-11T11:14:52.888Z,76.40
2023-01-11T11:16:03.268Z,75.91
2023-01-11T11:17:18.349Z,76.15
2023-01-11T11:18:20.033Z,75.68
2023-01-11T11:19:25.248Z,75.62
2023-01-11T11:20:30.837Z,76.26
2023-01-11T11:21:35.868Z,76.96
2023-01-11T11:22:37.478Z,77.07
2023-01-11T11:23:39.148Z,76.37
2023-01-11T11:24:50.020Z,75.90
2023-01-11T11:25:54.677Z,76.11
2023-01-11T11:27:20.934Z,76.32
2023-01-11T11:28:22.579Z,76.51
2023-01-11T11:29:29.360Z,76.33
2023-01-11T11:30:34.341Z,76.15
2023-01-11T11:31:37.546Z,76.24
2023-01-11T11:32:41.528Z,76.00
2023-01-11T11:33:44.047Z,76.20
2023-01-11T11:34:51.961Z,75.69
2023-01-11T11:35:58.494Z,76.20
2023-01-11T11:37:00.726Z,75.57
2023-01-11T11:38:02.396Z,75.48
2023-01-11T11:39:09.831Z,74.92
2023-01-11T11:40:37.874Z,75.16
2023-01-11T11:41:53.481Z,74.67
2023-01-11T11:43:20.661Z,75.07
2023-01-11T11:44:24.487Z,73.96
2023-01-11T11:45:27.680Z,74.14
2023-01-11T11:46:30.065Z,74.39
2023-01-11T11:47:31.874Z,74.49
2023-01-11T11:48:34.183Z,74.14
2023-01-11T11:49:36.459Z,73.98
2023-01-11T11:50:45.984Z,73.74
2023-01-11T11:51:47.707Z,73.92
2023-01-11T11:52:55.090Z,74.39
2023-01-11T11:53:57.862Z,74.80
2023-01-11T11:54:59.731Z,73.50
2023-01-11T11:56:27.529Z,73.38
2023-01-11T11:57:30.564Z,73.02
2023-01-11T11:58:32.173Z,73.18
2023-01-11T11:59:33.788Z,73.13
2023-01-11T12:00:41.613Z,73.77
2023-01-11T12:01:47.408Z,73.88
2023-01-11T12:02:50.543Z,74.20
2023-01-11T12:03:52.708Z,74.55
2023-01-11T12:04:54.410Z,74.45
2023-01-11T12:06:03.610Z,74.27
2023-01-11T12:07:06.122Z,72.85
2023-01-11T12:08:14.212Z,72.79
2023-01-11T12:09:33.708Z,72.72
2023-01-11T12:10:35.313Z,72.40
2023-01-11T12:11:38.843Z,72.61
2023-01-11T12:13:01.326Z,73.37
2023-01-11T12:14:13.608Z,73.16
2023-01-11T12:15:15.213Z,72.55
2023-01-11T12:16:21.274Z,72.13
2023-01-11T12:17:24.416Z,72.98
2023-01-11T12:18:27.066Z,72.94
2023-01-11T12:19:45.330Z,72.98
2023-01-11T12:20:47.376Z,72.66
2023-01-11T12:21:50.688Z,72.91
2023-01-11T12:23:18.071Z,72.18
2023-01-11T12:24:20.280Z,72.60
2023-01-11T12:25:24.241Z,72.97
2023-01-11T12:26:52.891Z,72.85
2023-01-11T12:28:18.881Z,72.11
2023-01-11T12:29:50.792Z,71.82
2023-01-11T12:30:58.291Z,72.29
2023-01-11T12:32:25.170Z,72.25
2023-01-11T12:33:44.107Z,72.19
2023-01-11T12:35:00.821Z,71.83
2023-01-11T12:36:23.029Z,71.92
2023-01-11T12:37:59.079Z,71.83
2023-01-11T12:39:10.696Z,71.89
2023-01-11T12:40:12.329Z,71.96
2023-01-11T12:41:43.906Z,71.61
2023-01-11T12:43:03.361Z,71.72
2023-01-11T12:44:33.991Z,71.40
2023-01-11T12:45:56.059Z,71.96
2023-01-11T12:47:49.322Z,71.84
2023-01-11T12:49:18.856Z,71.73
2023-01-11T12:50:25.582Z,72.11
2023-01-11T12:51:42.197Z,71.74
2023-01-11T12:53:07.571Z,71.30
2023-01-11T12:54:30.488Z,71.67
2023-01-11T12:55:32.041Z,71.46
2023-01-11T12:56:33.642Z,71.33
2023-01-11T12:57:53.628Z,71.50
2023-01-11T12:59:16.693Z,71.73
2023-01-11T13:00:42.846Z,71.63
2023-01-11T13:01:48.116Z,71.63
2023-01-11T13:03:04.979Z,71.99
2023-01-11T13:04:51.131Z,72.21
2023-01-11T13:06:37.164Z,71.76
2023-01-11T13:07:44.473Z,72.00
2023-01-11T13:08:53.360Z,71.78
2023-01-11T13:10:13.621Z,72.16
2023-01-11T13:11:35.215Z,72.08
2023-01-11T13:12:45.871Z,72.32
2023-01-11T13:13:59.492Z,71.81
2023-01-11T13:15:03.529Z,71.77
2023-01-11T13:16:10.493Z,71.78
2023-01-11T13:17:33.948Z,72.01
2023-01-11T13:19:07.629Z,72.38
2023-01-11T13:20:24.397Z,72.07
2023-01-11T13:21:35.745Z,72.00
2023-01-11T13:22:41.675Z,72.65
2023-01-11T13:24:12.533Z,72.29
2023-01-11T13:25:24.860Z,71.97
2023-01-11T13:26:31.992Z,70.61
2023-01-11T13:27:33.583Z,71.04
2023-01-11T13:28:39.561Z,71.62
2023-01-11T13:29:42.920Z,71.56
2023-01-11T13:30:45.011Z,71.35
2023-01-11T13:31:47.217Z,70.39
2023-01-11T13:32:56.620Z,71.00
2023-01-11T13:34:02.484Z,71.57
2023-01-11T13:35:21.706Z,72.03
2023-01-11T13:36:26.186Z,72.12
2023-01-11T13:37:49.269Z,72.08
2023-01-11T13:39:09.226Z,72.10
2023-01-11T13:40:29.267Z,71.88
2023-01-11T13:41:35.261Z,71.64
2023-01-11T13:42:41.079Z,71.71
2023-01-11T13:43:48.188Z,71.52
2023-01-11T13:45:01.866Z,71.45
2023-01-11T13:46:22.295Z,72.01
2023-01-11T13:47:37.192Z,72.27
2023-01-11T13:49:11.946Z,72.32
2023-01-11T13:50:28.248Z,71.88
2023-01-11T13:51:56.225Z,72.10
2023-01-11T13:53:16.100Z,71.70
2023-01-11T13:54:25.835Z,71.55
2023-01-11T13:55:56.386Z,71.34
2023-01-11T13:57:02.578Z,71.46
2023-01-11T13:58:04.175Z,71.21
2023-01-11T13:59:11.884Z,71.27
2023-01-11T14:00:23.801Z,71.65
2023-01-11T14:01:55.462Z,72.21
2023-01-11T14:03:03.601Z,72.43
2023-01-11T14:04:16.112Z,72.29
2023-01-11T14:05:19.531Z,72.83
2023-01-11T14:06:42.333Z,72.18
2023-01-11T14:08:05.234Z,71.95
2023-01-11T14:09:25.420Z,72.09
2023-01-11T14:10:50.415Z,72.44
2023-01-11T14:12:10.281Z,72.70
2023-01-11T14:13:48.318Z,72.48
2023-01-11T14:15:31.482Z,72.61
2023-01-11T14:17:07.044Z,72.89
2023-01-11T14:18:17.364Z,72.92
2023-01-11T14:19:45.082Z,73.31
2023-01-11T14:21:05.222Z,73.30
2023-01-11T14:22:22.102Z,73.65
2023-01-11T14:23:30.900Z,73.60
2023-01-11T14:24:33.550Z,73.58
2023-01-11T14:25:38.556Z,73.64
2023-01-11T14:27:14.159Z,73.66
2023-01-11T14:28:44.556Z,74.06
2023-01-11T14:29:52.422Z,74.41
2023-01-11T14:30:56.987Z,74.75
2023-01-11T14:32:27.721Z,75.03
2023-01-11T14:33:48.726Z,74.87
2023-01-11T14:35:03.002Z,74.99
2023-01-11T14:36:22.436Z,74.75
2023-01-11T14:37:45.257Z,74.78
2023-01-11T14:38:56.777Z,74.97
2023-01-11T14:40:17.446Z,75.06